Time;durP1;ratioP1;P1;durP2;ratioP2;P2;SDS_P1;SDS_P2;PMS_P1;PMS_P2;Temp;Humidity;BMP_temperature;BMP_pressure;BME280_temperature;BME280_humidity;BME280_pressure;Samples;Min_cycle;Max_cycle;Signal;HPM_P1;HPM_P2
2023/04/22 00:00:22;;;;;;;9.40;6.57;;;10.80;99.90;;;;;;4980927;28;20027;-92
2023/04/22 00:02:48;;;;;;;8.10;6.30;;;10.70;99.90;;;;;;4964527;28;20460;-89
2023/04/22 00:05:13;;;;;;;9.43;7.40;;;10.70;99.90;;;;;;4964442;28;20053;-89
2023/04/22 00:07:41;;;;;;;10.40;7.53;;;10.70;99.90;;;;;;4986501;28;20010;-94
2023/04/22 00:10:09;;;;;;;11.23;7.70;;;10.70;99.90;;;;;;5004256;28;20087;-95
2023/04/22 00:12:35;;;;;;;12.25;8.68;;;10.70;99.90;;;;;;5004163;28;20034;-95
2023/04/22 00:15:00;;;;;;;12.40;8.23;;;10.60;99.90;;;;;;5003496;28;20014;-95
2023/04/22 00:17:29;;;;;;;10.90;7.97;;;10.60;99.90;;;;;;5002827;28;20006;-95
2023/04/22 00:19:55;;;;;;;13.25;8.88;;;10.60;99.90;;;;;;5002277;28;20026;-94
2023/04/22 00:22:33;;;;;;;10.82;8.18;;;10.60;99.90;;;;;;4986841;28;20053;-91
2023/04/22 00:24:58;;;;;;;10.48;7.72;;;10.60;99.90;;;;;;4981424;28;20050;-91
2023/04/22 00:27:33;;;;;;;14.13;9.82;;;10.50;99.90;;;;;;4981816;28;20039;-91
2023/04/22 00:29:59;;;;;;;10.35;8.30;;;10.50;99.90;;;;;;4998244;28;20050;-91
2023/04/22 00:32:37;;;;;;;10.27;7.50;;;10.50;99.90;;;;;;4984078;28;20054;-91
2023/04/22 00:35:06;;;;;;;9.95;7.68;;;10.50;99.90;;;;;;4998586;28;20029;-90
2023/04/22 00:37:35;;;;;;;10.65;7.80;;;10.50;99.90;;;;;;4994897;28;20034;-90
2023/04/22 00:40:08;;;;;;;10.07;8.00;;;10.50;99.90;;;;;;4980623;28;20093;-91
2023/04/22 00:42:37;;;;;;;12.15;7.97;;;10.50;99.90;;;;;;4981738;28;20053;-91
2023/04/22 00:45:10;;;;;;;11.23;8.38;;;10.50;99.90;;;;;;4981234;28;20053;-94
2023/04/22 00:47:37;;;;;;;10.55;8.13;;;10.50;99.90;;;;;;4997271;28;20073;-95
2023/04/22 00:50:09;;;;;;;14.18;10.55;;;10.40;99.90;;;;;;4997025;28;20105;-96
2023/04/22 00:52:35;;;;;;;11.27;8.93;;;10.40;99.90;;;;;;4980413;28;20039;-95
2023/04/22 00:55:10;;;;;;;13.20;9.70;;;10.40;99.90;;;;;;4980451;28;20033;-95
2023/04/22 00:57:43;;;;;;;12.60;9.85;;;10.30;99.90;;;;;;4965167;28;20069;-96
2023/04/22 01:00:12;;;;;;;14.90;9.77;;;10.30;99.90;;;;;;4964763;28;20121;-91
2023/04/22 01:02:41;;;;;;;12.55;9.15;;;10.30;99.90;;;;;;4963683;28;20407;-90
2023/04/22 01:05:13;;;;;;;11.68;8.93;;;10.30;99.90;;;;;;4996093;28;20031;-91
2023/04/22 01:07:45;;;;;;;10.95;8.20;;;10.30;99.90;;;;;;4979542;28;20045;-91
2023/04/22 01:10:11;;;;;;;10.32;8.38;;;10.20;99.90;;;;;;4980110;28;20118;-92
2023/04/22 01:12:43;;;;;;;12.10;9.15;;;10.20;99.90;;;;;;4995643;28;20479;-91
2023/04/22 01:15:12;;;;;;;11.43;8.85;;;10.20;99.90;;;;;;4979349;28;20030;-92
2023/04/22 01:17:47;;;;;;;15.00;9.38;;;10.20;99.90;;;;;;4963059;28;20030;-91
2023/04/22 01:20:13;;;;;;;13.07;9.13;;;10.20;99.90;;;;;;4979117;28;20082;-90
2023/04/22 01:22:52;;;;;;;12.45;9.98;;;10.10;99.90;;;;;;4994749;28;20030;-90
2023/04/22 01:25:18;;;;;;;12.05;8.90;;;10.10;99.90;;;;;;4995281;28;20039;-90
2023/04/22 01:27:50;;;;;;;11.93;9.07;;;10.10;99.90;;;;;;4979189;28;20065;-90
2023/04/22 01:30:16;;;;;;;12.48;8.82;;;10.10;99.90;;;;;;4979305;28;20050;-94
2023/04/22 01:32:42;;;;;;;13.20;9.98;;;10.00;99.90;;;;;;4979439;28;20514;-94
2023/04/22 01:35:09;;;;;;;11.35;9.13;;;10.00;99.90;;;;;;4980433;28;20042;-96
2023/04/22 01:37:50;;;;;;;11.02;8.93;;;10.00;99.90;;;;;;4980710;28;20030;-94
2023/04/22 01:40:18;;;;;;;;;;;10.00;99.90;;;;;;4996444;28;20026;-95
2023/04/22 01:42:53;;;;;;;13.75;8.55;;;10.00;99.90;;;;;;4995034;28;19910;-92
2023/04/22 01:45:19;;;;;;;10.63;8.65;;;9.90;99.90;;;;;;5014500;28;20046;-91
2023/04/22 01:47:54;;;;;;;11.80;9.07;;;9.90;99.90;;;;;;4995073;28;20031;-91
2023/04/22 01:50:20;;;;;;;14.05;9.57;;;9.90;99.90;;;;;;4962901;28;20042;-91
2023/04/22 01:52:56;;;;;;;12.57;9.70;;;9.90;99.90;;;;;;4996215;28;20030;-96
2023/04/22 01:55:22;;;;;;;11.68;8.75;;;9.90;99.90;;;;;;4978956;28;20022;-96
2023/04/22 01:57:57;;;;;;;13.88;10.50;;;9.90;99.90;;;;;;4963774;28;20595;-95
2023/04/22 02:00:22;;;;;;;9.77;8.40;;;9.80;99.90;;;;;;4995622;28;20010;-95
2023/04/22 02:02:57;;;;;;;15.00;10.35;;;9.80;99.90;;;;;;4986850;28;20033;-89
2023/04/22 02:05:26;;;;;;;13.80;10.65;;;9.80;99.90;;;;;;4981500;28;20038;-91
2023/04/22 02:07:58;;;;;;;15.20;11.13;;;9.90;99.90;;;;;;4964632;28;20093;-91
2023/04/22 02:10:30;;;;;;;12.88;10.15;;;9.80;99.90;;;;;;4980909;28;20054;-96
2023/04/22 02:12:59;;;;;;;12.88;10.30;;;9.80;99.90;;;;;;4997859;28;20037;-96
2023/04/22 02:15:31;;;;;;;15.82;11.10;;;9.80;99.90;;;;;;4978981;28;20027;-95
2023/04/22 02:17:57;;;;;;;13.13;10.77;;;9.80;99.90;;;;;;4978921;28;20480;-96
2023/04/22 02:20:25;;;;;;;15.60;11.57;;;9.80;99.90;;;;;;4962830;28;20018;-90
2023/04/22 02:23:04;;;;;;;16.48;11.57;;;9.80;99.90;;;;;;4995034;28;20080;-91
2023/04/22 02:25:32;;;;;;;17.48;12.95;;;9.80;99.90;;;;;;4978535;28;20542;-90
2023/04/22 02:28:01;;;;;;;16.42;13.00;;;9.80;99.90;;;;;;4978627;28;20040;-91
2023/04/22 02:30:33;;;;;;;17.63;13.52;;;9.80;99.90;;;;;;4994096;28;20058;-92
2023/04/22 02:33:05;;;;;;;21.33;13.95;;;9.80;99.90;;;;;;4978383;28;20062;-91
2023/04/22 02:35:34;;;;;;;18.80;14.85;;;9.80;99.90;;;;;;4982702;28;20113;-94
2023/04/22 02:38:06;;;;;;;18.23;15.23;;;9.80;99.90;;;;;;5010034;28;20109;-95
2023/04/22 02:40:34;;;;;;;19.70;15.40;;;9.80;99.90;;;;;;4983240;28;20563;-94
2023/04/22 02:43:06;;;;;;;21.15;15.27;;;9.70;99.90;;;;;;4966769;28;20027;-95
2023/04/22 02:45:39;;;;;;;20.80;16.17;;;9.80;99.90;;;;;;4983087;28;20534;-93
2023/04/22 02:48:05;;;;;;;19.95;15.75;;;9.80;99.90;;;;;;4983835;28;20080;-94
2023/04/22 02:50:31;;;;;;;22.77;16.50;;;9.80;99.90;;;;;;4966547;28;20034;-94
2023/04/22 02:52:56;;;;;;;19.05;15.38;;;9.80;99.90;;;;;;4982621;28;20533;-92
2023/04/22 02:55:23;;;;;;;23.27;17.15;;;9.70;99.90;;;;;;4966114;28;20026;-92
2023/04/22 02:57:49;;;;;;;19.85;16.27;;;9.80;99.90;;;;;;4998784;28;20021;-92
2023/04/22 03:00:15;;;;;;;20.63;16.27;;;9.80;99.90;;;;;;4998303;28;20590;-92
2023/04/22 03:02:41;;;;;;;21.05;16.65;;;9.80;99.90;;;;;;4981717;28;20031;-92
2023/04/22 03:05:07;;;;;;;21.95;16.63;;;9.80;99.90;;;;;;4966171;28;20037;-89
2023/04/22 03:07:32;;;;;;;24.73;18.05;;;9.80;99.90;;;;;;4997950;28;20022;-90
2023/04/22 03:09:58;;;;;;;25.65;18.52;;;9.80;99.90;;;;;;4965986;28;20030;-94
2023/04/22 03:12:24;;;;;;;26.85;18.63;;;9.80;99.90;;;;;;4981701;28;20044;-94
2023/04/22 03:14:50;;;;;;;24.20;17.60;;;9.80;99.90;;;;;;4982006;28;20036;-94
2023/04/22 03:17:16;;;;;;;23.60;17.70;;;9.80;99.90;;;;;;4998081;28;20054;-94
2023/04/22 03:19:45;;;;;;;25.92;19.23;;;9.80;99.90;;;;;;4965451;28;20077;-95
2023/04/22 03:22:11;;;;;;;24.55;18.75;;;9.80;99.90;;;;;;4965419;28;20117;-95
2023/04/22 03:24:46;;;;;;;23.17;19.00;;;9.80;99.90;;;;;;4965360;28;20049;-96
2023/04/22 03:27:12;;;;;;;24.83;18.17;;;9.80;99.90;;;;;;4965196;28;20070;-92
2023/04/22 03:29:47;;;;;;;24.95;19.02;;;9.80;99.90;;;;;;4981114;28;20057;-92
2023/04/22 03:32:12;;;;;;;27.60;19.77;;;9.80;99.90;;;;;;4981125;28;20026;-91
2023/04/22 03:34:50;;;;;;;26.85;19.88;;;9.80;99.90;;;;;;4981281;28;20056;-91
2023/04/22 03:37:16;;;;;;;26.35;20.23;;;9.80;99.90;;;;;;4965315;28;20480;-91
2023/04/22 03:39:41;;;;;;;30.55;21.27;;;9.80;99.90;;;;;;4965055;28;20022;-91
2023/04/22 03:42:07;;;;;;;28.25;21.10;;;9.80;99.90;;;;;;4966064;28;20026;-96
2023/04/22 03:44:33;;;;;;;28.55;20.73;;;9.80;99.90;;;;;;4986353;28;20022;-94
2023/04/22 03:46:58;;;;;;;25.67;20.40;;;9.80;99.90;;;;;;4987596;28;20022;-94
2023/04/22 03:49:24;;;;;;;26.63;20.63;;;9.80;99.90;;;;;;5004336;28;20078;-94
2023/04/22 03:51:50;;;;;;;33.33;22.85;;;9.80;99.90;;;;;;5003328;28;20054;-91
2023/04/22 03:54:16;;;;;;;31.02;21.70;;;9.80;99.90;;;;;;4981233;28;20037;-94
2023/04/22 03:57:12;;;;;;;27.52;21.75;;;9.80;99.90;;;;;;4985309;23;20056;-96
2023/04/22 03:59:57;;;;;;;28.95;21.55;;;9.80;99.90;;;;;;5001506;28;20019;-96
2023/04/22 04:08:16;;;;;;;31.58;22.80;;;9.80;99.90;;;;;;5017624;28;20050;-91
2023/04/22 04:10:41;;;;;;;37.00;26.40;;;9.80;99.90;;;;;;4985796;28;20068;-95
2023/04/22 04:13:07;;;;;;;35.47;25.35;;;9.80;99.90;;;;;;5018264;28;20053;-93
2023/04/22 04:15:35;;;;;;;40.63;27.98;;;9.80;99.90;;;;;;4984207;28;20022;-90
2023/04/22 04:18:01;;;;;;;37.53;25.95;;;9.80;99.90;;;;;;5000086;28;20029;-90
2023/04/22 04:20:27;;;;;;;40.08;26.83;;;9.80;99.90;;;;;;5016376;28;20034;-90
2023/04/22 04:22:53;;;;;;;37.53;25.75;;;9.80;99.90;;;;;;4999554;28;20026;-91
2023/04/22 04:25:20;;;;;;;40.92;27.67;;;9.80;99.90;;;;;;4983822;28;20087;-90
2023/04/22 04:27:46;;;;;;;39.42;26.40;;;9.80;99.90;;;;;;5000026;28;20071;-90
2023/04/22 04:30:13;;;;;;;41.53;28.30;;;9.80;99.90;;;;;;5000049;28;20030;-89
2023/04/22 04:32:39;;;;;;;40.58;28.25;;;9.80;99.90;;;;;;4984381;28;20029;-93
2023/04/22 04:35:05;;;;;;;40.90;28.70;;;9.80;99.90;;;;;;5016612;28;20018;-90
2023/04/22 04:37:31;;;;;;;46.22;29.60;;;9.70;99.90;;;;;;5015974;28;20052;-90
2023/04/22 04:39:58;;;;;;;37.22;27.00;;;9.70;99.90;;;;;;4999726;28;20034;-93
2023/04/22 04:42:24;;;;;;;38.95;27.85;;;9.80;99.90;;;;;;5000799;28;20029;-94
2023/04/22 04:44:52;;;;;;;36.15;26.42;;;9.80;99.90;;;;;;5016525;28;20026;-94
2023/04/22 04:47:21;;;;;;;44.10;29.50;;;9.70;99.90;;;;;;5016266;28;20030;-93
2023/04/22 04:49:47;;;;;;;44.22;29.85;;;9.80;99.90;;;;;;5000387;28;20018;-89
2023/04/22 04:52:12;;;;;;;42.03;28.63;;;9.70;99.90;;;;;;4999081;28;20021;-89
2023/04/22 04:54:38;;;;;;;38.92;27.63;;;9.80;99.90;;;;;;5015433;28;20092;-89
2023/04/22 04:57:08;;;;;;;44.30;28.98;;;9.80;99.90;;;;;;4982259;28;20050;-89
2023/04/22 04:59:40;;;;;;;41.58;28.10;;;9.80;99.90;;;;;;4999464;28;20062;-89
2023/04/22 05:02:09;;;;;;;37.00;26.50;;;9.80;99.90;;;;;;4999218;28;20038;-89
2023/04/22 05:04:41;;;;;;;43.42;29.52;;;9.80;99.90;;;;;;4982707;28;20053;-90
2023/04/22 05:07:10;;;;;;;42.38;28.50;;;9.80;99.90;;;;;;4982961;28;20073;-92
2023/04/22 05:09:42;;;;;;;48.65;30.92;;;9.80;99.90;;;;;;4982600;28;20128;-92
2023/04/22 05:12:07;;;;;;;48.78;32.03;;;9.80;99.90;;;;;;4983027;28;20375;-92
2023/04/22 05:14:43;;;;;;;52.80;31.60;;;9.80;99.90;;;;;;4998761;28;20030;-93
2023/04/22 05:17:13;;;;;;;40.80;30.20;;;9.80;99.90;;;;;;4982865;28;20037;-93
2023/04/22 05:19:45;;;;;;;40.67;28.75;;;9.80;99.90;;;;;;5015072;28;20463;-93
2023/04/22 05:22:13;;;;;;;43.08;30.60;;;9.80;99.90;;;;;;4998844;28;20029;-93
2023/04/22 05:24:45;;;;;;;50.15;32.17;;;9.90;99.90;;;;;;4983270;28;20041;-93
2023/04/22 05:27:11;;;;;;;50.72;31.17;;;9.80;99.90;;;;;;4983200;28;20116;-94
2023/04/22 05:29:46;;;;;;;35.45;26.08;;;9.90;99.90;;;;;;4999249;28;20499;-94
2023/04/22 05:32:12;;;;;;;41.08;29.30;;;9.90;99.90;;;;;;4983001;28;20025;-93
2023/04/22 05:34:47;;;;;;;41.50;29.83;;;9.90;99.90;;;;;;5014906;28;20092;-92
2023/04/22 05:37:14;;;;;;;41.75;29.73;;;9.90;99.90;;;;;;4999162;28;20499;-94
2023/04/22 05:39:49;;;;;;;46.70;31.90;;;9.90;99.90;;;;;;4998730;28;20029;-93
2023/04/22 05:42:15;;;;;;;45.05;31.92;;;9.90;99.90;;;;;;4998797;28;20026;-93
2023/04/22 05:44:50;;;;;;;44.88;30.73;;;9.90;99.90;;;;;;5015481;28;20025;-93
2023/04/22 05:47:15;;;;;;;44.17;31.33;;;9.90;99.90;;;;;;4982571;28;20482;-93
2023/04/22 05:49:50;;;;;;;50.10;33.05;;;10.00;99.90;;;;;;4998615;28;20036;-92
2023/04/22 05:52:17;;;;;;;46.58;30.15;;;10.00;99.90;;;;;;4981891;28;20038;-93
2023/04/22 05:54:43;;;;;;;45.78;31.40;;;10.00;99.90;;;;;;4999502;28;20148;-90
2023/04/22 05:57:12;;;;;;;46.90;30.90;;;10.00;99.90;;;;;;4999639;28;20574;-93
2023/04/22 05:59:53;;;;;;;50.90;32.92;;;10.00;99.90;;;;;;4999833;28;20022;-92
2023/04/22 06:02:18;;;;;;;;;;;10.10;99.90;;;;;;5000185;28;20025;-93
2023/04/22 06:04:53;;;;;;;58.80;35.65;;;10.10;99.90;;;;;;4999292;28;20369;-90
2023/04/22 06:07:19;;;;;;;65.18;38.00;;;10.10;99.90;;;;;;5014710;28;20495;-91
2023/04/22 06:09:57;;;;;;;57.30;37.05;;;10.10;99.90;;;;;;4981854;28;20108;-90
2023/04/22 06:12:26;;;;;;;56.60;35.13;;;10.10;99.90;;;;;;4998572;28;20045;-89
2023/04/22 06:14:58;;;;;;;60.92;36.35;;;10.10;99.90;;;;;;4983552;28;20030;-89
2023/04/22 06:17:26;;;;;;;62.20;38.00;;;10.10;99.90;;;;;;4983611;28;20083;-89
2023/04/22 06:19:58;;;;;;;71.25;38.92;;;10.20;99.90;;;;;;5015472;28;20071;-89
2023/04/22 06:22:30;;;;;;;55.38;34.60;;;10.20;99.90;;;;;;4998796;28;20053;-89
2023/04/22 06:24:56;;;;;;;57.38;35.78;;;10.20;99.90;;;;;;4997303;28;20022;-90
2023/04/22 06:27:22;;;;;;;60.28;37.55;;;10.20;99.90;;;;;;4982299;28;20118;-91
2023/04/22 06:29:47;;;;;;;52.53;34.95;;;10.20;99.90;;;;;;5015844;28;20414;-93
2023/04/22 06:32:13;;;;;;;59.80;37.10;;;10.30;99.90;;;;;;4999297;28;20069;-94
2023/04/22 06:34:39;;;;;;;59.97;36.97;;;10.30;99.90;;;;;;4984922;28;20038;-93
2023/04/22 06:37:05;;;;;;;64.63;38.38;;;10.30;99.90;;;;;;4998277;28;20018;-92
2023/04/22 06:39:30;;;;;;;63.72;37.58;;;10.30;99.90;;;;;;4999220;28;20019;-94
2023/04/22 06:41:56;;;;;;;67.50;39.97;;;10.30;99.90;;;;;;4982785;28;20506;-91
2023/04/22 06:44:24;;;;;;;56.40;35.03;;;10.30;99.90;;;;;;4982192;28;20040;-92
2023/04/22 06:46:49;;;;;;;57.42;36.80;;;10.30;99.90;;;;;;4987323;28;20030;-92
2023/04/22 06:49:37;;;;;;;81.22;42.47;;;10.40;99.90;;;;;;5001129;28;20028;-92
2023/04/22 06:52:05;;;;;;;67.00;38.63;;;10.40;99.90;;;;;;4985081;28;20121;-92
2023/04/22 06:54:34;;;;;;;62.63;38.22;;;10.40;99.90;;;;;;5000121;28;20034;-92
2023/04/22 06:57:09;;;;;;;65.53;41.17;;;10.40;99.90;;;;;;5001164;28;20022;-92
2023/04/22 06:59:35;;;;;;;82.40;43.45;;;10.50;99.90;;;;;;5019764;28;20028;-92
2023/04/22 07:02:00;;;;;;;74.57;41.95;;;10.50;99.90;;;;;;5004969;28;20116;-92
2023/04/22 07:04:36;;;;;;;70.15;41.05;;;10.60;99.90;;;;;;4997751;28;20120;-93
2023/04/22 07:07:11;;;;;;;78.43;43.88;;;10.60;99.90;;;;;;4981513;28;20521;-93
2023/04/22 07:09:36;;;;;;;78.85;44.63;;;10.70;99.90;;;;;;4997778;28;20033;-93
2023/04/22 07:12:11;;;;;;;74.93;43.08;;;10.70;99.90;;;;;;4981916;28;20506;-93
2023/04/22 07:14:41;;;;;;;74.60;42.13;;;10.80;99.90;;;;;;4984659;28;20128;-94
2023/04/22 07:17:06;;;;;;;71.40;39.03;;;10.80;99.90;;;;;;4998926;28;20026;-92
2023/04/22 07:19:38;;;;;;;68.63;39.30;;;10.80;99.90;;;;;;4998235;28;20033;-90
2023/04/22 07:22:13;;;;;;;68.78;37.13;;;10.90;99.90;;;;;;5001398;28;20383;-90
2023/04/22 07:24:39;;;;;;;66.30;38.60;;;11.00;99.90;;;;;;5001882;28;20073;-90
2023/04/22 07:27:11;;;;;;;63.20;38.95;;;11.00;99.90;;;;;;5025317;28;20030;-90
2023/04/22 07:29:40;;;;;;;55.90;35.55;;;11.10;99.90;;;;;;5004226;28;20030;-94
2023/04/22 07:32:12;;;;;;;60.95;37.13;;;11.20;99.90;;;;;;5001676;28;20033;-93
2023/04/22 07:34:38;;;;;;;48.20;32.33;;;11.30;99.90;;;;;;4986070;28;20042;-93
2023/04/22 07:37:13;;;;;;;44.15;29.70;;;11.40;99.90;;;;;;5001619;28;20190;-94
2023/04/22 07:39:39;;;;;;;41.60;28.85;;;11.50;99.90;;;;;;4984816;28;20112;-94
2023/04/22 07:42:11;;;;;;;41.97;28.02;;;11.60;99.90;;;;;;5001583;28;20025;-89
2023/04/22 07:44:40;;;;;;;42.55;28.48;;;11.60;99.90;;;;;;5005043;28;20041;-89
2023/04/22 07:47:12;;;;;;;39.00;26.90;;;11.70;99.90;;;;;;5004050;28;20056;-89
2023/04/22 07:49:42;;;;;;;32.63;23.20;;;11.80;99.90;;;;;;5005058;28;20033;-89
2023/04/22 07:52:14;;;;;;;39.55;27.73;;;12.00;99.90;;;;;;4990975;28;20030;-89
2023/04/22 07:54:43;;;;;;;32.25;23.73;;;12.00;99.90;;;;;;4984776;28;20029;-89
2023/04/22 07:57:08;;;;;;;28.38;21.42;;;12.10;99.90;;;;;;4983999;28;20113;-90
2023/04/22 07:59:34;;;;;;;28.80;21.70;;;12.20;99.90;;;;;;4984261;28;20475;-90
2023/04/22 08:02:00;;;;;;;30.08;22.50;;;12.30;99.90;;;;;;4984772;28;20025;-90
2023/04/22 08:04:25;;;;;;;26.48;22.05;;;12.40;99.90;;;;;;4984366;28;20479;-90
2023/04/22 08:06:51;;;;;;;29.88;20.48;;;12.40;99.90;;;;;;4984957;28;20122;-89
2023/04/22 08:09:17;;;;;;;24.70;19.63;;;12.50;99.90;;;;;;5001874;28;20030;-95
2023/04/22 08:11:43;;;;;;;21.42;16.98;;;12.60;99.90;;;;;;5018203;28;20529;-94
2023/04/22 08:14:09;;;;;;;22.75;17.60;;;12.60;99.90;;;;;;5009601;28;20054;-94
2023/04/22 08:16:36;;;;;;;18.50;15.20;;;12.70;99.90;;;;;;5007218;28;20104;-94
2023/04/22 08:19:01;;;;;;;19.63;16.30;;;12.80;99.90;;;;;;4993703;28;20032;-95
2023/04/22 08:21:27;;;;;;;20.33;17.00;;;12.90;99.90;;;;;;5008589;28;20054;-94
2023/04/22 08:23:53;;;;;;;21.58;17.30;;;13.00;99.90;;;;;;4985748;28;20128;-96
2023/04/22 08:26:28;;;;;;;20.95;14.70;;;13.10;99.90;;;;;;4988062;28;20057;-95
2023/04/22 08:28:54;;;;;;;18.80;15.00;;;13.20;99.90;;;;;;4984538;28;20026;-92
2023/04/22 08:31:29;;;;;;;19.17;14.95;;;13.20;99.90;;;;;;5016240;28;20364;-91
2023/04/22 08:33:55;;;;;;;17.30;14.63;;;13.30;99.90;;;;;;4986071;28;20030;-91
2023/04/22 08:36:31;;;;;;;16.60;14.32;;;13.40;99.90;;;;;;4985697;28;20048;-91
2023/04/22 08:39:02;;;;;;;19.95;14.70;;;13.40;99.90;;;;;;5000511;28;20026;-91
2023/04/22 08:41:34;;;;;;;18.08;13.82;;;13.60;99.90;;;;;;5003246;28;20022;-90
2023/04/22 08:44:04;;;;;;;15.95;11.85;;;13.60;99.90;;;;;;5033928;28;20068;-95
2023/04/22 08:46:33;;;;;;;16.08;12.82;;;13.70;99.90;;;;;;4993280;28;20034;-95
2023/04/22 08:49:02;;;;;;;16.52;13.10;;;13.80;99.90;;;;;;5000260;28;20030;-88
2023/04/22 08:51:30;;;;;;;18.02;13.73;;;13.80;99.90;;;;;;5001393;28;20133;-88
2023/04/22 08:53:56;;;;;;;15.65;13.05;;;13.90;99.90;;;;;;5016659;28;20022;-88
2023/04/22 08:56:24;;;;;;;15.60;11.00;;;14.00;99.90;;;;;;5019018;28;20025;-88
2023/04/22 08:58:51;;;;;;;14.52;11.77;;;14.10;99.90;;;;;;5000554;28;20026;-94
2023/04/22 09:01:18;;;;;;;15.13;11.55;;;14.20;99.90;;;;;;5017809;28;20049;-90
2023/04/22 09:03:44;;;;;;;12.70;10.93;;;14.20;99.90;;;;;;4983298;28;20030;-91
2023/04/22 09:06:21;;;;;;;13.07;11.38;;;14.30;99.90;;;;;;5023433;28;20022;-91
2023/04/22 09:08:48;;;;;;;13.13;10.95;;;14.40;99.90;;;;;;5003155;28;20026;-92
2023/04/22 09:11:15;;;;;;;16.17;11.57;;;14.50;99.90;;;;;;5016397;28;20109;-90
2023/04/22 09:13:41;;;;;;;12.18;9.55;;;14.60;99.90;;;;;;5022097;28;20030;-90
2023/04/22 09:16:10;;;;;;;16.00;11.45;;;14.60;99.90;;;;;;5000437;28;20080;-91
2023/04/22 09:18:44;;;;;;;13.70;10.65;;;14.70;99.90;;;;;;5000366;28;20056;-95
2023/04/22 09:21:13;;;;;;;12.57;10.85;;;14.80;99.90;;;;;;4989755;28;20033;-94
2023/04/22 09:23:50;;;;;;;12.90;10.18;;;14.80;99.90;;;;;;4989533;28;20514;-96
2023/04/22 09:26:23;;;;;;;17.02;11.80;;;14.90;99.90;;;;;;4999386;28;20022;-95
2023/04/22 09:28:59;;;;;;;12.05;9.52;;;15.00;99.90;;;;;;5015192;28;20368;-94
2023/04/22 09:31:27;;;;;;;12.10;9.82;;;15.10;99.90;;;;;;5016648;28;20029;-88
2023/04/22 09:33:59;;;;;;;12.32;10.43;;;15.20;99.90;;;;;;5018802;28;20018;-92
2023/04/22 09:36:30;;;;;;;11.95;10.18;;;15.30;99.90;;;;;;5029863;28;20053;-93
2023/04/22 09:39:04;;;;;;;12.63;10.55;;;15.40;99.90;;;;;;5020965;28;20022;-92
2023/04/22 09:41:32;;;;;;;13.10;11.35;;;15.40;99.90;;;;;;5022276;28;20468;-92
2023/04/22 09:44:00;;;;;;;11.70;10.13;;;15.50;99.90;;;;;;5016390;28;20032;-90
2023/04/22 09:46:28;;;;;;;14.27;9.68;;;15.60;99.90;;;;;;5021058;28;20562;-91
2023/04/22 09:48:55;;;;;;;11.27;9.43;;;15.60;99.90;;;;;;5005950;28;20042;-90
2023/04/22 09:51:21;;;;;;;11.38;10.07;;;15.60;99.90;;;;;;5019893;28;20029;-92
2023/04/22 09:53:57;;;;;;;12.25;9.73;;;15.70;99.90;;;;;;5017653;28;20022;-89
2023/04/22 09:56:45;;;;;;;12.55;9.60;;;15.80;99.90;;;;;;4998849;28;20037;-89
2023/04/22 09:59:11;;;;;;;10.25;7.97;;;15.90;99.90;;;;;;5015891;28;20032;-90
2023/04/22 10:01:39;;;;;;;11.85;9.07;;;16.00;99.90;;;;;;4999634;28;20030;-90
2023/04/22 10:04:08;;;;;;;13.60;8.40;;;16.00;99.90;;;;;;5015219;28;20025;-90
2023/04/22 10:06:35;;;;;;;11.82;9.80;;;16.10;99.90;;;;;;4999656;28;20085;-91
2023/04/22 10:09:01;;;;;;;11.55;8.23;;;16.10;99.90;;;;;;5017958;28;20048;-91
2023/04/22 10:11:27;;;;;;;11.45;7.95;;;16.20;99.90;;;;;;5002044;28;20033;-92
2023/04/22 10:13:53;;;;;;;10.05;8.15;;;16.20;99.90;;;;;;5006779;28;20021;-92
2023/04/22 10:16:21;;;;;;;10.32;7.88;;;16.30;99.90;;;;;;5004505;28;20026;-91
2023/04/22 10:18:48;;;;;;;11.30;7.95;;;16.30;99.90;;;;;;5022033;28;20026;-91
2023/04/22 10:21:14;;;;;;;10.55;8.00;;;16.40;99.90;;;;;;5016544;28;20044;-90
2023/04/22 10:23:46;;;;;;;10.10;7.35;;;16.40;99.90;;;;;;5015410;28;20451;-88
2023/04/22 10:26:11;;;;;;;12.38;8.15;;;16.60;99.90;;;;;;5015152;28;20018;-90
2023/04/22 10:28:43;;;;;;;10.05;8.00;;;16.60;99.90;;;;;;5017229;28;20503;-89
2023/04/22 10:31:22;;;;;;;11.45;7.68;;;16.70;99.90;;;;;;5015978;28;20048;-91
2023/04/22 10:33:47;;;;;;;9.35;7.90;;;16.80;99.90;;;;;;4998964;28;20151;-90
2023/04/22 10:36:13;;;;;;;9.05;7.72;;;16.90;99.90;;;;;;4997941;28;20022;-93
2023/04/22 10:38:41;;;;;;;10.30;7.63;;;17.00;99.90;;;;;;5015057;28;20026;-92
2023/04/22 10:41:15;;;;;;;11.50;7.13;;;17.10;99.90;;;;;;5018998;28;20121;-91
2023/04/22 10:43:47;;;;;;;8.63;6.82;;;17.20;99.90;;;;;;5017394;28;20022;-91
2023/04/22 10:46:31;;;;;;;10.52;7.18;;;17.30;99.90;;;;;;5016750;28;20076;-90
2023/04/22 10:49:20;;;;;;;10.07;7.38;;;17.40;99.90;;;;;;5020810;28;20033;-92
2023/04/22 10:51:57;;;;;;;8.43;6.35;;;17.50;99.90;;;;;;5016746;28;20128;-91
2023/04/22 10:54:28;;;;;;;8.48;6.53;;;17.60;99.90;;;;;;5018623;28;20029;-93
2023/04/22 10:57:04;;;;;;;10.80;7.40;;;17.70;99.90;;;;;;5016889;28;20497;-93
2023/04/22 10:59:31;;;;;;;10.95;7.15;;;17.80;99.90;;;;;;5017016;28;20022;-92
2023/04/22 11:02:07;;;;;;;9.32;7.03;;;17.90;99.90;;;;;;5000416;28;20029;-92
2023/04/22 11:04:33;;;;;;;10.05;6.90;;;18.10;99.90;;;;;;5001090;28;20029;-90
2023/04/22 11:10:05;;;;;;;8.68;7.05;;;18.20;99.90;;;;;;5020386;28;20104;-93
2023/04/22 11:12:44;;;;;;;9.60;7.38;;;18.30;99.90;;;;;;5017767;28;20061;-91
2023/04/22 11:15:21;;;;;;;9.70;6.80;;;18.30;99.90;;;;;;5017241;28;20434;-92
2023/04/22 11:17:51;;;;;;;9.68;7.68;;;18.20;99.90;;;;;;5001137;28;20018;-92
2023/04/22 11:20:17;;;;;;;8.38;7.00;;;18.20;99.90;;;;;;5001703;28;20018;-89
2023/04/22 11:22:49;;;;;;;9.48;7.07;;;18.10;99.90;;;;;;5016890;28;20105;-91
2023/04/22 11:25:16;;;;;;;8.23;7.32;;;18.20;99.90;;;;;;5017849;28;20108;-93
2023/04/22 11:27:42;;;;;;;9.35;6.88;;;18.10;99.90;;;;;;5000875;28;20029;-94
2023/04/22 11:30:13;;;;;;;9.02;6.10;;;18.10;99.90;;;;;;5017486;28;20045;-95
2023/04/22 11:32:46;;;;;;;;;;;18.10;99.90;;;;;;5019182;28;20068;-94
2023/04/22 11:35:25;;;;;;;8.05;6.72;;;18.10;99.90;;;;;;5018180;28;20369;-93
2023/04/22 11:37:57;;;;;;;8.80;6.18;;;18.10;99.90;;;;;;5017657;28;20113;-92
2023/04/22 11:40:32;;;;;;;9.07;6.63;;;18.10;99.90;;;;;;5017104;28;20026;-92
2023/04/22 11:43:00;;;;;;;10.20;7.05;;;18.10;99.90;;;;;;5017682;28;20029;-93
2023/04/22 11:45:27;;;;;;;9.18;6.78;;;18.20;99.90;;;;;;5018659;28;20022;-93
2023/04/22 11:47:53;;;;;;;8.35;6.82;;;18.20;99.90;;;;;;5001024;28;20061;-91
2023/04/22 11:50:24;;;;;;;15.77;7.00;;;18.20;99.90;;;;;;5000282;28;20069;-92
2023/04/22 11:53:04;;;;;;;9.68;6.05;;;18.30;99.90;;;;;;5000311;28;20026;-92
2023/04/22 11:55:34;;;;;;;6.85;5.38;;;18.30;99.90;;;;;;5017068;28;20023;-92
2023/04/22 11:58:07;;;;;;;8.75;5.97;;;18.30;99.90;;;;;;5016796;28;20486;-92
2023/04/22 12:00:42;;;;;;;9.27;5.25;;;18.30;99.90;;;;;;5016713;28;20081;-92
2023/04/22 12:03:17;;;;;;;9.52;6.13;;;18.30;99.90;;;;;;5016150;28;20059;-91
2023/04/22 12:05:46;;;;;;;9.07;6.63;;;18.30;99.90;;;;;;5015304;28;20030;-90
2023/04/22 12:08:13;;;;;;;6.95;5.47;;;18.30;99.90;;;;;;5014861;28;20049;-91
2023/04/22 12:10:43;;;;;;;8.43;6.38;;;18.30;99.90;;;;;;5015133;28;20044;-91
2023/04/22 12:13:19;;;;;;;8.50;6.05;;;18.20;99.90;;;;;;5016438;28;20049;-92
2023/04/22 12:15:58;;;;;;;9.60;6.50;;;18.20;99.90;;;;;;5001979;28;20475;-92
2023/04/22 12:18:35;;;;;;;8.52;6.03;;;18.20;99.90;;;;;;5016531;28;20030;-91
2023/04/22 12:21:09;;;;;;;9.38;6.40;;;18.10;99.90;;;;;;5016041;28;20382;-91
2023/04/22 12:23:43;;;;;;;8.68;6.93;;;18.20;99.90;;;;;;5016426;28;20374;-91
2023/04/22 12:26:10;;;;;;;10.10;6.88;;;18.20;99.90;;;;;;5016241;28;20383;-92
2023/04/22 12:28:41;;;;;;;10.43;7.32;;;18.20;99.90;;;;;;5000414;28;20054;-91
2023/04/22 12:31:07;;;;;;;7.45;6.10;;;18.20;99.90;;;;;;5018508;28;20022;-90
2023/04/22 12:33:34;;;;;;;10.52;7.40;;;18.30;99.90;;;;;;5017537;28;20029;-91
2023/04/22 12:36:00;;;;;;;11.40;8.38;;;18.30;99.90;;;;;;5001065;28;20045;-92
2023/04/22 12:38:26;;;;;;;9.30;7.50;;;18.30;99.90;;;;;;4999646;28;20471;-89
2023/04/22 12:41:01;;;;;;;11.15;7.93;;;18.30;99.90;;;;;;5000373;28;20113;-90
2023/04/22 12:43:27;;;;;;;9.90;7.68;;;18.30;99.90;;;;;;5000145;28;20026;-90
2023/04/22 12:46:03;;;;;;;9.57;7.63;;;18.30;99.90;;;;;;4999232;28;20026;-90
2023/04/22 12:48:29;;;;;;;9.48;7.60;;;18.30;99.90;;;;;;5015189;28;20034;-91
2023/04/22 12:50:56;;;;;;;10.20;7.40;;;18.30;99.90;;;;;;4998962;28;20101;-90
2023/04/22 12:53:21;;;;;;;9.27;7.15;;;18.30;99.90;;;;;;4999351;28;20030;-93
2023/04/22 12:55:49;;;;;;;9.15;6.65;;;18.40;99.90;;;;;;4999881;28;20109;-93